createdAt,value
2022-08-23T00:02:26.644Z,98887.41
2022-08-23T00:05:08.349Z,98891.63
2022-08-23T00:07:39.700Z,98886.72
2022-08-23T00:10:08.914Z,98886.50
2022-08-23T00:12:36.177Z,98888.50
2022-08-23T00:15:04.362Z,98887.94
2022-08-23T00:17:34.003Z,98884.28
2022-08-23T00:20:01.662Z,98885.72
2022-08-23T00:22:28.593Z,98881.94
2022-08-23T00:24:56.797Z,98877.16
2022-08-23T00:27:23.663Z,98885.34
2022-08-23T00:29:53.011Z,98881.59
2022-08-23T00:32:21.932Z,98883.44
2022-08-23T00:34:49.135Z,98879.06
2022-08-23T00:37:17.538Z,98874.72
2022-08-23T00:39:45.696Z,98883.66
2022-08-23T00:42:34.981Z,98876.25
2022-08-23T00:45:23.762Z,98881.72
2022-08-23T00:47:52.857Z,98878.84
2022-08-23T00:50:25.917Z,98879.59
2022-08-23T00:53:01.961Z,98872.44
2022-08-23T00:55:29.796Z,98879.78
2022-08-23T00:57:59.180Z,98876.34
2022-08-23T01:00:26.575Z,98885.38
2022-08-23T01:02:54.502Z,98876.72
2022-08-23T01:05:25.946Z,98885.25
2022-08-23T01:07:55.605Z,98879.06
2022-08-23T01:10:27.809Z,98877.34
2022-08-23T01:13:07.150Z,98878.84
2022-08-23T01:15:37.202Z,98876.41
2022-08-23T01:18:07.730Z,98871.44
2022-08-23T01:20:42.754Z,98886.00
2022-08-23T01:23:22.744Z,98890.72
2022-08-23T01:25:50.180Z,98884.13
2022-08-23T01:28:18.291Z,98883.66
2022-08-23T01:30:47.824Z,98883.47
2022-08-23T01:33:16.472Z,98881.31
2022-08-23T01:35:48.010Z,98883.66
2022-08-23T01:38:15.058Z,98884.00
2022-08-23T01:40:44.941Z,98889.75
2022-08-23T01:43:13.639Z,98890.59
2022-08-23T01:45:42.695Z,98887.28
2022-08-23T01:48:11.557Z,98890.97
2022-08-23T01:50:39.437Z,98893.03
2022-08-23T01:53:08.008Z,98890.34
2022-08-23T01:55:35.696Z,98887.22
2022-08-23T01:58:05.993Z,98882.53
2022-08-23T02:00:36.117Z,98880.66
2022-08-23T02:03:03.838Z,98882.09
2022-08-23T02:05:31.541Z,98882.16
2022-08-23T02:08:18.823Z,98882.25
2022-08-23T02:10:45.738Z,98883.19
2022-08-23T02:13:14.990Z,98882.81
2022-08-23T02:15:43.206Z,98885.50
2022-08-23T02:18:11.133Z,98885.75
2022-08-23T02:20:43.974Z,98881.44
2022-08-23T02:23:10.955Z,98883.81
2022-08-23T02:25:37.816Z,98881.56
2022-08-23T02:28:05.192Z,98887.25
2022-08-23T02:30:33.532Z,98898.63
2022-08-23T02:33:01.411Z,98904.72
2022-08-23T02:35:33.365Z,98905.34
2022-08-23T02:38:03.605Z,98911.50
2022-08-23T02:40:30.759Z,98910.69
2022-08-23T02:42:58.125Z,98911.34
2022-08-23T02:45:25.023Z,98914.50
2022-08-23T02:47:53.667Z,98907.78
2022-08-23T02:50:25.647Z,98904.88
2022-08-23T02:52:52.766Z,98905.63
2022-08-23T02:55:20.565Z,98908.41
2022-08-23T02:57:47.556Z,98910.31
2022-08-23T03:00:16.267Z,98914.63
2022-08-23T03:02:43.973Z,98906.56
2022-08-23T03:05:13.536Z,98917.38
2022-08-23T03:07:41.413Z,98918.75
2022-08-23T03:10:10.227Z,98918.13
2022-08-23T03:12:40.734Z,98917.66
2022-08-23T03:15:08.627Z,98917.56
2022-08-23T03:17:35.877Z,98912.81
2022-08-23T03:20:07.573Z,98917.13
2022-08-23T03:22:35.833Z,98921.50
2022-08-23T03:25:03.192Z,98912.88
2022-08-23T03:27:44.878Z,98919.19
2022-08-23T03:30:19.196Z,98922.16
2022-08-23T03:32:52.448Z,98925.63
2022-08-23T03:35:19.632Z,98926.19
2022-08-23T03:37:49.101Z,98926.28
2022-08-23T03:40:18.392Z,98925.78
2022-08-23T03:42:45.318Z,98926.63
2022-08-23T03:45:13.726Z,98924.81
2022-08-23T03:47:40.780Z,98931.50
2022-08-23T03:50:08.493Z,98932.66
2022-08-23T03:52:37.204Z,98933.56
2022-08-23T03:55:06.630Z,98935.59
2022-08-23T03:57:35.444Z,98931.34
2022-08-23T04:00:03.774Z,98927.06
2022-08-23T04:02:41.458Z,98938.25
2022-08-23T04:05:11.023Z,98942.28
2022-08-23T04:07:52.760Z,98951.25
2022-08-23T04:10:24.776Z,98950.06
2022-08-23T04:12:55.090Z,98953.84
2022-08-23T04:15:22.821Z,98954.38
2022-08-23T04:17:49.694Z,98958.78
2022-08-23T04:20:17.380Z,98955.41
2022-08-23T04:22:54.518Z,98956.22
2022-08-23T04:25:34.909Z,98967.53
2022-08-23T04:28:04.330Z,98963.41
2022-08-23T04:30:32.666Z,98969.00
2022-08-23T04:32:59.930Z,98972.13
2022-08-23T04:35:29.857Z,98972.06
2022-08-23T04:37:57.034Z,98977.47
2022-08-23T04:40:44.736Z,98974.28
2022-08-23T04:43:12.873Z,98979.59
2022-08-23T04:45:41.048Z,98975.84
2022-08-23T04:48:14.136Z,98980.22
2022-08-23T04:50:45.371Z,98981.56
2022-08-23T04:53:15.345Z,98986.09
2022-08-23T04:55:54.940Z,98980.94
2022-08-23T04:58:22.055Z,98985.78
2022-08-23T05:00:51.947Z,98993.13
2022-08-23T05:03:23.942Z,98995.13
2022-08-23T05:05:52.841Z,99002.59
2022-08-23T05:08:22.203Z,99003.88
2022-08-23T05:10:49.113Z,99002.13
2022-08-23T05:13:17.479Z,99007.22
2022-08-23T05:15:44.470Z,99010.59
2022-08-23T05:18:11.718Z,99010.75
2022-08-23T05:20:40.208Z,99012.75
2022-08-23T05:23:08.088Z,99015.19
2022-08-23T05:25:52.480Z,99008.50
2022-08-23T05:28:41.993Z,99010.69
2022-08-23T05:31:12.488Z,99018.06
2022-08-23T05:33:45.525Z,99007.81
2022-08-23T05:36:15.178Z,99013.66
2022-08-23T05:38:43.285Z,99017.59
2022-08-23T05:41:10.601Z,99015.97
2022-08-23T05:43:39.022Z,99018.72
2022-08-23T05:46:12.172Z,99026.19
2022-08-23T05:48:46.902Z,99025.22
2022-08-23T05:51:18.282Z,99027.94
2022-08-23T05:53:47.832Z,99027.16
2022-08-23T05:56:17.518Z,99022.78
2022-08-23T05:58:47.120Z,99016.53
2022-08-23T06:01:15.060Z,99018.31
2022-08-23T06:03:44.214Z,99018.78
2022-08-23T06:06:12.946Z,99020.63
2022-08-23T06:08:40.621Z,99028.41
2022-08-23T06:11:10.522Z,99027.38
2022-08-23T06:13:44.570Z,99034.09
2022-08-23T06:16:16.892Z,99029.25
2022-08-23T06:18:45.415Z,99032.91
2022-08-23T06:21:42.969Z,99032.66
2022-08-23T06:24:10.707Z,99045.22
2022-08-23T06:26:45.463Z,99042.91
2022-08-23T06:29:14.493Z,99037.28
2022-08-23T06:31:45.661Z,99039.09
2022-08-23T06:34:19.635Z,99045.06
2022-08-23T06:37:07.254Z,99039.94
2022-08-23T06:39:53.197Z,99042.47
2022-08-23T06:42:45.588Z,99038.91
2022-08-23T06:45:15.993Z,99039.41
2022-08-23T06:47:49.195Z,99033.41
2022-08-23T06:50:16.261Z,99036.91
2022-08-23T06:53:01.452Z,99039.66
2022-08-23T06:55:52.920Z,99042.47
2022-08-23T06:58:30.110Z,99042.44
2022-08-23T07:01:44.214Z,99049.53
2022-08-23T07:04:17.949Z,99050.69
2022-08-23T07:07:07.077Z,99048.09
2022-08-23T07:09:36.678Z,99048.13
2022-08-23T07:12:06.058Z,99049.94
2022-08-23T07:14:33.274Z,99047.75
2022-08-23T07:17:02.799Z,99048.81
2022-08-23T07:19:34.174Z,99050.25
2022-08-23T07:22:03.065Z,99053.41
2022-08-23T07:24:33.589Z,99056.00
2022-08-23T07:27:06.876Z,99057.25
2022-08-23T07:29:37.427Z,99056.31
2022-08-23T07:32:05.756Z,99059.63
2022-08-23T07:34:35.191Z,99059.06
2022-08-23T07:37:02.639Z,99061.22
2022-08-23T07:39:31.835Z,99058.28
2022-08-23T07:42:00.542Z,99064.59
2022-08-23T07:44:28.206Z,99068.94
2022-08-23T07:46:55.554Z,99061.72
2022-08-23T07:49:23.033Z,99063.41
2022-08-23T07:51:59.062Z,99062.88
2022-08-23T07:54:28.424Z,99071.72
2022-08-23T07:57:08.053Z,99065.97
2022-08-23T07:59:57.670Z,99061.44
2022-08-23T08:02:39.440Z,99065.53
2022-08-23T08:05:13.615Z,99069.41
2022-08-23T08:07:43.575Z,99073.00
2022-08-23T08:10:10.658Z,99075.97
2022-08-23T08:12:37.732Z,99086.19
2022-08-23T08:15:14.500Z,99086.03
2022-08-23T08:17:41.961Z,99086.66
2022-08-23T08:20:17.638Z,99085.16
2022-08-23T08:23:05.702Z,99083.47
2022-08-23T08:26:01.195Z,99083.34
2022-08-23T08:28:28.597Z,99075.00
2022-08-23T08:30:55.915Z,99075.97
2022-08-23T08:33:23.061Z,99080.94
2022-08-23T08:35:57.810Z,99081.66
2022-08-23T08:38:28.916Z,99080.47
2022-08-23T08:41:01.070Z,99081.97
2022-08-23T08:43:34.893Z,99084.94
2022-08-23T08:46:07.365Z,99083.22
2022-08-23T08:48:42.864Z,99082.94
2022-08-23T08:51:24.592Z,99081.28
2022-08-23T08:53:55.480Z,99081.69
2022-08-23T08:56:32.991Z,99081.44
2022-08-23T08:59:19.290Z,99080.16
2022-08-23T09:01:48.719Z,99082.69
2022-08-23T09:04:22.495Z,99082.41
2022-08-23T09:06:57.148Z,99089.25
2022-08-23T09:09:46.677Z,99080.00
2022-08-23T09:12:24.987Z,99076.41
2022-08-23T09:15:12.996Z,99081.13
2022-08-23T09:17:44.223Z,99086.34
2022-08-23T09:20:15.393Z,99078.75
2022-08-23T09:22:48.202Z,99084.63
2022-08-23T09:25:25.887Z,99083.69
2022-08-23T09:28:02.617Z,99088.91
2022-08-23T09:30:49.055Z,99087.00
2022-08-23T09:33:19.104Z,99087.41
2022-08-23T09:36:04.490Z,99080.63
2022-08-23T09:38:32.043Z,99087.69
2022-08-23T09:41:19.332Z,99088.00
2022-08-23T09:43:50.878Z,99084.13
2022-08-23T09:46:26.901Z,99085.56
2022-08-23T09:48:55.299Z,99086.34
2022-08-23T09:51:29.936Z,99086.22
2022-08-23T09:54:08.254Z,99083.38
2022-08-23T09:56:39.307Z,99083.47
2022-08-23T09:59:28.222Z,99085.31
2022-08-23T10:02:16.065Z,99090.38
2022-08-23T10:04:48.837Z,99087.69
2022-08-23T10:07:27.703Z,99082.09
2022-08-23T10:10:15.060Z,99082.09
2022-08-23T10:12:44.008Z,99082.84
2022-08-23T10:15:11.439Z,99075.28
2022-08-23T10:17:50.037Z,99078.44
2022-08-23T10:20:29.660Z,99080.16
2022-08-23T10:23:16.503Z,99064.25
2022-08-23T10:25:55.199Z,99062.91
2022-08-23T10:28:53.508Z,99066.38
2022-08-23T10:31:31.434Z,99068.91
2022-08-23T10:34:10.720Z,99064.53
2022-08-23T10:36:51.193Z,99066.91
2022-08-23T10:39:26.011Z,99068.50
2022-08-23T10:42:01.658Z,99059.50
2022-08-23T10:44:35.567Z,99059.50
2022-08-23T10:47:21.080Z,99055.47
2022-08-23T10:49:52.175Z,99056.34
2022-08-23T10:52:23.631Z,99048.16
2022-08-23T10:55:06.068Z,99051.59
2022-08-23T10:57:37.956Z,99046.03
2022-08-23T11:00:13.197Z,99044.94
2022-08-23T11:02:48.814Z,99041.66
2022-08-23T11:05:31.698Z,99037.97
2022-08-23T11:08:05.795Z,99038.91
2022-08-23T11:10:56.207Z,99036.97
2022-08-23T11:13:29.681Z,99030.66
2022-08-23T11:16:01.236Z,99031.34
2022-08-23T11:18:42.142Z,99031.09
2022-08-23T11:21:28.432Z,99035.72
2022-08-23T11:24:40.535Z,99028.59
2022-08-23T11:27:07.760Z,99035.47
2022-08-23T11:29:43.572Z,99025.38
2022-08-23T11:32:39.588Z,99024.81
2022-08-23T11:35:37.627Z,99018.31
2022-08-23T11:38:10.773Z,99026.34
2022-08-23T11:41:20.535Z,99022.56
2022-08-23T11:43:49.486Z,99022.91
2022-08-23T11:46:31.144Z,99024.84
2022-08-23T11:49:54.751Z,99015.56
2022-08-23T11:52:38.098Z,99018.81
2022-08-23T11:55:24.335Z,99016.91
2022-08-23T11:58:11.825Z,99019.91
2022-08-23T12:00:59.610Z,99017.06
2022-08-23T12:03:34.818Z,99013.88
2022-08-23T12:06:13.166Z,99010.25
2022-08-23T12:08:56.999Z,99003.03
2022-08-23T12:11:25.888Z,99001.91
2022-08-23T12:13:56.900Z,99003.78
2022-08-23T12:16:36.134Z,98995.91
2022-08-23T12:19:09.704Z,99003.25
2022-08-23T12:21:47.142Z,99003.63
2022-08-23T12:24:29.741Z,98995.13
2022-08-23T12:27:20.827Z,98998.56
2022-08-23T12:29:56.800Z,98998.25
2022-08-23T12:32:33.944Z,98995.06
2022-08-23T12:35:13.406Z,99001.16
2022-08-23T12:37:50.050Z,98999.34
2022-08-23T12:40:27.899Z,98995.28
2022-08-23T12:43:04.025Z,98997.97
2022-08-23T12:45:37.761Z,98999.81
2022-08-23T12:48:08.306Z,98998.34
2022-08-23T12:50:37.455Z,99002.13
2022-08-23T12:53:07.049Z,99002.78
2022-08-23T12:55:38.357Z,98999.50
2022-08-23T12:58:06.382Z,98995.47
2022-08-23T13:00:36.285Z,98997.03
2022-08-23T13:03:06.860Z,98998.16
2022-08-23T13:05:36.986Z,98996.75
2022-08-23T13:08:08.458Z,98998.97
2022-08-23T13:10:39.169Z,98989.41
2022-08-23T13:13:08.565Z,98988.19
2022-08-23T13:15:51.899Z,98983.22
2022-08-23T13:18:30.457Z,98989.16
2022-08-23T13:21:17.506Z,98984.06
2022-08-23T13:23:45.095Z,98987.88
2022-08-23T13:26:36.903Z,98988.03
2022-08-23T13:29:13.316Z,98982.09
2022-08-23T13:31:49.547Z,98981.75
2022-08-23T13:34:34.636Z,98982.47
2022-08-23T13:37:04.187Z,98982.59
2022-08-23T13:39:33.147Z,98976.69
2022-08-23T13:42:01.673Z,98973.06
2022-08-23T13:44:31.609Z,98972.59
2022-08-23T13:46:58.553Z,98978.78
2022-08-23T13:49:28.707Z,98976.84
2022-08-23T13:52:45.565Z,98976.84
2022-08-23T13:54:57.135Z,98970.59
2022-08-23T13:57:29.598Z,98962.66
2022-08-23T13:59:59.032Z,98967.59
2022-08-23T14:02:26.606Z,98973.06
2022-08-23T14:04:53.513Z,98970.72
2022-08-23T14:07:21.117Z,98973.13
2022-08-23T14:09:50.974Z,98964.97
2022-08-23T14:12:24.008Z,98957.34
2022-08-23T14:14:52.177Z,98969.63
2022-08-23T14:17:20.547Z,98964.06
2022-08-23T14:20:32.937Z,98958.50
2022-08-23T14:22:35.854Z,98962.47
2022-08-23T14:25:02.799Z,98955.97
2022-08-23T14:27:29.722Z,98956.72
2022-08-23T14:29:57.964Z,98955.28
2022-08-23T14:32:25.548Z,98952.19
2022-08-23T14:34:57.176Z,98949.56
2022-08-23T14:40:11.710Z,98951.50
2022-08-23T14:42:38.701Z,98946.50
2022-08-23T14:45:08.254Z,98949.56
2022-08-23T14:47:38.039Z,98948.28
2022-08-23T14:50:09.347Z,98948.84
2022-08-23T14:52:38.313Z,98945.06
2022-08-23T14:55:06.114Z,98948.59
2022-08-23T14:57:33.065Z,98947.66
2022-08-23T14:59:59.982Z,98950.38
2022-08-23T15:02:29.790Z,98939.69
2022-08-23T15:04:57.135Z,98939.44
2022-08-23T15:07:24.139Z,98937.28
2022-08-23T15:10:04.904Z,98938.03
2022-08-23T15:15:22.023Z,98939.47
2022-08-23T15:17:55.106Z,98936.88
2022-08-23T15:20:24.795Z,98938.50
2022-08-23T15:23:05.365Z,98937.34
2022-08-23T15:25:35.393Z,98934.13
2022-08-23T15:28:02.443Z,98931.50
2022-08-23T15:30:32.426Z,98939.22
2022-08-23T15:33:01.716Z,98928.13
2022-08-23T15:35:33.992Z,98937.59
2022-08-23T15:38:00.839Z,98932.78
2022-08-23T15:40:27.800Z,98928.91
2022-08-23T15:42:54.788Z,98930.50
2022-08-23T15:45:22.017Z,98932.72
2022-08-23T15:47:51.733Z,98923.41
2022-08-23T15:50:21.969Z,98921.75
2022-08-23T15:52:48.876Z,98932.94
2022-08-23T15:55:16.539Z,98925.34
2022-08-23T15:57:47.070Z,98934.59
2022-08-23T16:00:17.629Z,98930.31
2022-08-23T16:03:06.472Z,98936.06
2022-08-23T16:05:33.143Z,98932.53
2022-08-23T16:08:00.101Z,98937.97
2022-08-23T16:10:28.356Z,98935.00
2022-08-23T16:12:55.524Z,98938.25
2022-08-23T16:15:22.772Z,98930.91
2022-08-23T16:17:49.750Z,98942.34
2022-08-23T16:20:17.202Z,98933.84
2022-08-23T16:22:45.451Z,98940.66
2022-08-23T16:25:12.301Z,98936.03
2022-08-23T16:27:39.172Z,98934.66
2022-08-23T16:30:07.877Z,98938.50
2022-08-23T16:32:36.752Z,98932.22
2022-08-23T16:35:04.478Z,98936.84
2022-08-23T16:37:31.334Z,98928.69
2022-08-23T16:39:59.892Z,98928.38
2022-08-23T16:42:26.833Z,98931.09
2022-08-23T16:44:53.675Z,98934.81
2022-08-23T16:47:20.676Z,98930.53
2022-08-23T16:49:47.631Z,98934.84
2022-08-23T16:52:15.249Z,98925.31
2022-08-23T16:54:42.597Z,98923.69
2022-08-23T16:57:10.852Z,98924.22
2022-08-23T16:59:40.539Z,98931.50
2022-08-23T17:02:18.374Z,98933.72
2022-08-23T17:04:47.733Z,98928.81
2022-08-23T17:07:16.563Z,98934.81
2022-08-23T17:09:43.545Z,98935.34
2022-08-23T17:12:11.840Z,98928.50
2022-08-23T17:14:39.147Z,98935.28
2022-08-23T17:17:06.053Z,98930.09
2022-08-23T17:19:32.935Z,98933.06
2022-08-23T17:22:00.066Z,98927.63
2022-08-23T17:24:26.928Z,98931.94
2022-08-23T17:26:53.840Z,98931.38
2022-08-23T17:29:22.141Z,98933.81
2022-08-23T17:31:49.231Z,98944.63
2022-08-23T17:34:16.190Z,98941.84
2022-08-23T17:36:47.750Z,98945.59
2022-08-23T17:39:17.511Z,98950.13
2022-08-23T17:41:45.550Z,98945.75
2022-08-23T17:44:13.354Z,98946.78
2022-08-23T17:46:44.846Z,98944.28
2022-08-23T17:49:12.606Z,98955.31
2022-08-23T17:51:41.097Z,98965.06
2022-08-23T17:54:10.051Z,98962.56
2022-08-23T17:56:38.102Z,98967.09
2022-08-23T17:59:08.816Z,98971.06
2022-08-23T18:01:36.185Z,98969.41
2022-08-23T18:04:05.975Z,98965.53
2022-08-23T18:06:33.966Z,98969.50
2022-08-23T18:09:02.874Z,98973.91
2022-08-23T18:11:29.848Z,98975.06
2022-08-23T18:13:56.781Z,98974.97
2022-08-23T18:16:33.004Z,98974.81
2022-08-23T18:19:02.820Z,98972.56
2022-08-23T18:21:31.324Z,98979.44
2022-08-23T18:23:59.041Z,98979.63
2022-08-23T18:26:45.011Z,98980.31
2022-08-23T18:29:14.396Z,98979.66
2022-08-23T18:31:43.502Z,98984.47
2022-08-23T18:34:11.252Z,98991.34
2022-08-23T18:36:39.676Z,98991.22
2022-08-23T18:39:08.588Z,98989.44
2022-08-23T18:41:35.871Z,98998.31
2022-08-23T18:44:05.443Z,98997.97
2022-08-23T18:46:33.790Z,98995.44
2022-08-23T18:49:00.890Z,99002.88
2022-08-23T18:51:28.574Z,99011.09
2022-08-23T18:53:57.130Z,99010.63
2022-08-23T18:56:24.343Z,99013.88
2022-08-23T18:58:51.642Z,99012.22
2022-08-23T19:01:23.776Z,99009.66
2022-08-23T19:03:51.092Z,99019.56
2022-08-23T19:06:18.124Z,99027.31
2022-08-23T19:08:45.357Z,99033.72
2022-08-23T19:11:14.009Z,99031.84
2022-08-23T19:13:40.874Z,99044.34
2022-08-23T19:16:12.765Z,99033.75
2022-08-23T19:18:40.295Z,99039.13
2022-08-23T19:21:07.331Z,99039.56
2022-08-23T19:23:35.347Z,99050.16
2022-08-23T19:26:03.058Z,99045.44
2022-08-23T19:28:33.573Z,99052.31
2022-08-23T19:31:00.971Z,99055.63
2022-08-23T19:33:27.842Z,99050.56
2022-08-23T19:35:55.431Z,99056.25
2022-08-23T19:38:25.459Z,99053.69
2022-08-23T19:40:52.354Z,99057.13
2022-08-23T19:43:19.184Z,99060.53
2022-08-23T19:45:47.556Z,99052.28
2022-08-23T19:48:14.451Z,99064.69
2022-08-23T19:50:41.780Z,99063.53
2022-08-23T19:53:08.806Z,99066.63
2022-08-23T19:55:38.915Z,99069.16
2022-08-23T19:58:06.524Z,99075.75
2022-08-23T20:00:34.185Z,99068.94
2022-08-23T20:03:02.625Z,99064.41
2022-08-23T20:05:29.836Z,99069.31
2022-08-23T20:07:56.751Z,99073.31
2022-08-23T20:10:23.786Z,99079.03
2022-08-23T20:12:50.610Z,99077.38
2022-08-23T20:15:17.644Z,99075.94
2022-08-23T20:17:44.866Z,99073.25
2022-08-23T20:20:13.957Z,99080.06
2022-08-23T20:22:59.611Z,99072.38
2022-08-23T20:25:26.692Z,99075.06
2022-08-23T20:27:53.797Z,99073.25
2022-08-23T20:30:22.162Z,99081.16
2022-08-23T20:32:49.025Z,99079.94
2022-08-23T20:35:17.688Z,99074.19
2022-08-23T20:37:44.545Z,99077.34
2022-08-23T20:40:11.828Z,99079.47
2022-08-23T20:42:39.460Z,99084.03
2022-08-23T20:45:07.274Z,99077.63
2022-08-23T20:47:35.105Z,99078.88
2022-08-23T20:50:02.153Z,99071.47
2022-08-23T20:52:34.434Z,99069.84
2022-08-23T20:55:01.942Z,99067.19
2022-08-23T20:57:31.969Z,99078.56
2022-08-23T21:00:06.065Z,99080.47
2022-08-23T21:02:32.963Z,99080.91
2022-08-23T21:04:59.829Z,99086.47
2022-08-23T21:07:27.960Z,99082.97
2022-08-23T21:09:56.929Z,99078.22
2022-08-23T21:12:23.837Z,99072.00
2022-08-23T21:14:50.791Z,99076.78
2022-08-23T21:17:17.637Z,99080.28
2022-08-23T21:19:44.495Z,99072.06
2022-08-23T21:22:11.446Z,99074.34
2022-08-23T21:24:38.528Z,99079.50
2022-08-23T21:27:09.612Z,99079.88
2022-08-23T21:29:37.436Z,99072.06
2022-08-23T21:32:04.346Z,99072.91
2022-08-23T21:34:31.206Z,99076.19
2022-08-23T21:36:58.241Z,99078.28
2022-08-23T21:39:25.723Z,99078.50
2022-08-23T21:41:52.650Z,99089.63
2022-08-23T21:44:21.158Z,99081.16
2022-08-23T21:46:48.573Z,99087.53
2022-08-23T21:49:20.816Z,99085.69
2022-08-23T21:51:49.198Z,99086.53
2022-08-23T21:54:18.303Z,99086.53
2022-08-23T21:56:45.944Z,99095.38
2022-08-23T21:59:15.285Z,99084.47
2022-08-23T22:01:44.002Z,99088.56
2022-08-23T22:04:13.346Z,99088.94
2022-08-23T22:06:41.574Z,99088.31
2022-08-23T22:09:11.053Z,99082.19
2022-08-23T22:11:41.727Z,99089.78
2022-08-23T22:14:09.352Z,99093.66
2022-08-23T22:16:37.228Z,99084.81
2022-08-23T22:19:05.485Z,99084.56
2022-08-23T22:21:35.592Z,99083.75
2022-08-23T22:24:02.902Z,99086.00
2022-08-23T22:26:30.292Z,99084.34
2022-08-23T22:28:57.297Z,99086.41
2022-08-23T22:31:24.619Z,99078.16
2022-08-23T22:33:52.850Z,99080.41
2022-08-23T22:36:23.064Z,99083.06
2022-08-23T22:38:50.977Z,99089.31
2022-08-23T22:41:20.256Z,99088.00
2022-08-23T22:43:47.179Z,99085.31
2022-08-23T22:46:14.412Z,99085.03
2022-08-23T22:48:41.581Z,99080.97
2022-08-23T22:51:12.520Z,99086.31
2022-08-23T22:53:44.416Z,99083.03
2022-08-23T22:56:13.559Z,99083.84
2022-08-23T22:58:40.900Z,99085.47
2022-08-23T23:01:13.331Z,99091.84
2022-08-23T23:03:41.936Z,99092.47
2022-08-23T23:06:09.079Z,99089.78
2022-08-23T23:08:35.918Z,99091.81
2022-08-23T23:11:06.348Z,99087.31
2022-08-23T23:13:33.516Z,99086.28
2022-08-23T23:16:02.895Z,99087.69
2022-08-23T23:18:30.049Z,99086.63
2022-08-23T23:20:58.460Z,99082.88
2022-08-23T23:23:26.070Z,99074.84
2022-08-23T23:25:53.026Z,99088.22
2022-08-23T23:28:21.918Z,99084.94
2022-08-23T23:30:51.242Z,99081.63
2022-08-23T23:33:19.439Z,99085.53
2022-08-23T23:35:47.207Z,99089.81
2022-08-23T23:38:14.477Z,99086.06
2022-08-23T23:40:41.456Z,99088.91
2022-08-23T23:43:10.041Z,99084.94
2022-08-23T23:45:41.055Z,99088.25
2022-08-23T23:48:08.846Z,99096.41
2022-08-23T23:50:36.625Z,99088.56
2022-08-23T23:53:04.557Z,99081.41
2022-08-23T23:55:31.486Z,99081.41
2022-08-23T23:57:58.608Z,99084.47
